Time;durP1;ratioP1;P1;durP2;ratioP2;P2;SDS_P1;SDS_P2;PMS_P1;PMS_P2;Temp;Humidity;BMP_temperature;BMP_pressure;BME280_temperature;BME280_humidity;BME280_pressure;Samples;Min_cycle;Max_cycle;Signal;HPM_P1;HPM_P2
2024/02/28 00:03:40;;;;;;;;;;;;;;;17.87;43.55;99998.06;10202470;28;1890;-77
2024/02/28 00:08:36;;;;;;;;;;;;;;;17.87;43.75;99995.41;10202494;28;846;-77
2024/02/28 00:13:32;;;;;;;;;;;;;;;17.87;43.68;100005.13;10202945;28;840;-77
2024/02/28 00:18:27;;;;;;;;;;;;;;;17.85;43.78;99999.03;10201606;28;885;-77
2024/02/28 00:23:23;;;;;;;;;;;;;;;17.84;43.65;99994.66;10201990;28;1945;-77
2024/02/28 00:28:19;;;;;;;;;;;;;;;17.83;43.54;99993.81;10202207;28;982;-77
2024/02/28 00:33:15;;;;;;;;;;;;;;;17.83;43.63;100000.88;10203033;28;865;-77
2024/02/28 00:38:11;;;;;;;;;;;;;;;17.82;43.64;100001.81;10201468;28;870;-77
2024/02/28 00:43:07;;;;;;;;;;;;;;;17.81;43.61;100014.09;10201905;28;1914;-77
2024/02/28 00:48:03;;;;;;;;;;;;;;;17.80;43.65;100016.81;10201185;28;880;-77
2024/02/28 00:52:59;;;;;;;;;;;;;;;17.78;43.63;100008.06;10200428;28;889;-77
2024/02/28 00:57:54;;;;;;;;;;;;;;;17.77;43.57;100006.34;10200805;28;972;-77
2024/02/28 01:02:50;;;;;;;;;;;;;;;17.76;43.56;100018.66;10201325;28;1949;-77
2024/02/28 01:07:46;;;;;;;;;;;;;;;17.74;43.51;100021.38;10200590;28;787;-77
2024/02/28 01:12:42;;;;;;;;;;;;;;;17.73;43.61;100024.91;10200440;28;858;-77
2024/02/28 01:17:38;;;;;;;;;;;;;;;17.72;43.56;100033.75;10200248;28;749;-77
2024/02/28 01:22:35;;;;;;;;;;;;;;;17.71;43.64;100032.03;10199952;28;1935;-77
2024/02/28 01:27:30;;;;;;;;;;;;;;;17.70;43.64;100025.03;10198761;28;917;-77
2024/02/28 01:32:26;;;;;;;;;;;;;;;17.69;43.51;100018.06;10199644;28;1458;-77
2024/02/28 01:37:22;;;;;;;;;;;;;;;17.68;43.44;100016.34;10199051;28;1012;-77
2024/02/28 01:42:18;;;;;;;;;;;;;;;17.66;43.70;100007.63;10200140;28;786;-77
2024/02/28 01:47:14;;;;;;;;;;;;;;;17.65;43.55;99999.78;10199333;28;1918;-77
2024/02/28 01:52:10;;;;;;;;;;;;;;;17.64;43.72;100011.25;10199837;28;857;-77
2024/02/28 01:57:06;;;;;;;;;;;;;;;17.63;43.59;100005.13;10199701;28;933;-77
2024/02/28 02:02:02;;;;;;;;;;;;;;;17.62;43.62;99994.63;10199517;28;925;-77
2024/02/28 02:06:59;;;;;;;;;;;;;;;17.62;43.48;99994.63;10198143;28;1910;-77
2024/02/28 02:11:55;;;;;;;;;;;;;;;17.60;43.38;99985.91;10198601;28;834;-77
2024/02/28 02:16:51;;;;;;;;;;;;;;;17.59;43.66;99995.59;10199054;28;857;-77
2024/02/28 02:21:47;;;;;;;;;;;;;;;17.58;43.57;99991.25;10198357;28;944;-77
2024/02/28 02:26:45;;;;;;;;;;;;;;;17.57;43.40;100005.34;10198160;28;1969;-77
2024/02/28 02:31:42;;;;;;;;;;;;;;;17.56;43.41;100016.81;10198302;28;1404;-77
2024/02/28 02:36:38;;;;;;;;;;;;;;;17.56;43.65;100013.31;10198016;28;819;-77
2024/02/28 02:41:33;;;;;;;;;;;;;;;17.53;43.49;100011.66;10203959;28;972;-77
2024/02/28 02:46:29;;;;;;;;;;;;;;;17.53;43.40;100011.66;10204928;28;1973;-77
2024/02/28 02:51:25;;;;;;;;;;;;;;;17.52;43.65;100007.28;10204839;28;819;-77
2024/02/28 02:56:21;;;;;;;;;;;;;;;17.50;43.68;100012.63;10204612;28;798;-77
2024/02/28 03:01:17;;;;;;;;;;;;;;;17.50;43.55;100006.47;10204813;28;802;-77
2024/02/28 03:06:13;;;;;;;;;;;;;;;17.50;43.63;100017.91;10204289;28;1894;-77
2024/02/28 03:11:09;;;;;;;;;;;;;;;17.49;43.36;100021.44;10204251;28;844;-77
2024/02/28 03:16:05;;;;;;;;;;;;;;;17.49;43.67;100015.31;10204864;28;888;-77
2024/02/28 03:21:01;;;;;;;;;;;;;;;17.49;43.37;100015.31;10203830;28;946;-77
2024/02/28 03:25:57;;;;;;;;;;;;;;;17.48;43.65;100024.16;10203719;28;1898;-77
2024/02/28 03:30:53;;;;;;;;;;;;;;;17.47;43.52;100028.53;10203992;28;1259;-77
2024/02/28 03:35:49;;;;;;;;;;;;;;;17.47;43.51;100027.69;10204126;28;870;-77
2024/02/28 03:40:45;;;;;;;;;;;;;;;17.47;43.57;100035.59;10203360;28;757;-77
2024/02/28 03:45:41;;;;;;;;;;;;;;;17.46;43.42;100042.63;10203626;28;1907;-77
2024/02/28 03:50:37;;;;;;;;;;;;;;;17.45;43.64;100042.72;10202859;28;838;-77
2024/02/28 03:55:33;;;;;;;;;;;;;;;17.44;43.56;100056.78;10202853;28;763;-77
2024/02/28 04:00:29;;;;;;;;;;;;;;;17.45;43.41;100069.06;10202618;28;949;-77
2024/02/28 04:05:25;;;;;;;;;;;;;;;17.43;43.59;100050.66;10202440;28;1914;-77
2024/02/28 04:10:21;;;;;;;;;;;;;;;17.43;43.40;100047.19;10203540;28;885;-77
2024/02/28 04:15:16;;;;;;;;;;;;;;;17.42;43.42;100059.50;10202764;28;763;-77
2024/02/28 04:20:12;;;;;;;;;;;;;;;17.42;43.53;100071.78;10202843;28;830;-77
2024/02/28 04:25:08;;;;;;;;;;;;;;;17.41;43.50;100070.94;10202461;28;1964;-77
2024/02/28 04:30:04;;;;;;;;;;;;;;;17.40;43.62;100066.59;10202585;28;1277;-77
2024/02/28 04:35:00;;;;;;;;;;;;;;;17.41;43.61;100075.34;10201856;28;917;-77
2024/02/28 04:39:56;;;;;;;;;;;;;;;17.41;43.38;100083.25;10201477;28;814;-77
2024/02/28 04:44:52;;;;;;;;;;;;;;;17.40;43.47;100082.41;10202239;28;2325;-77
2024/02/28 04:49:47;;;;;;;;;;;;;;;17.43;43.38;100095.47;10201972;28;921;-77
2024/02/28 04:54:43;;;;;;;;;;;;;;;17.43;43.53;100081.44;10201015;28;965;-77
2024/02/28 04:59:39;;;;;;;;;;;;;;;17.44;43.49;100093.69;10200836;28;928;-77
2024/02/28 05:04:35;;;;;;;;;;;;;;;17.44;43.44;100097.16;10200609;28;1902;-77
2024/02/28 05:09:31;;;;;;;;;;;;;;;17.45;43.45;100104.19;10200580;28;906;-77
2024/02/28 05:14:27;;;;;;;;;;;;;;;17.45;43.53;100108.59;10200999;28;878;-77
2024/02/28 05:19:23;;;;;;;;;;;;;;;17.47;43.33;100122.56;10199652;28;1024;-77
2024/02/28 05:24:19;;;;;;;;;;;;;;;17.47;43.49;100128.69;10200865;28;1906;-77
2024/02/28 05:29:14;;;;;;;;;;;;;;;17.48;43.54;100143.59;10200364;28;1324;-77
2024/02/28 05:34:10;;;;;;;;;;;;;;;17.48;43.29;100146.22;10199706;28;1003;-77
2024/02/28 05:39:08;;;;;;;;;;;;;;;17.50;43.37;100149.69;10199713;28;941;-77
2024/02/28 05:44:04;;;;;;;;;;;;;;;17.51;43.44;100156.66;10199425;28;1973;-77
2024/02/28 05:49:00;;;;;;;;;;;;;;;17.52;43.36;100160.16;10199946;28;855;-77
2024/02/28 05:53:55;;;;;;;;;;;;;;;17.52;43.23;100157.50;10199202;28;796;-77
2024/02/28 05:58:51;;;;;;;;;;;;;;;17.53;43.23;100160.09;10199802;28;842;-77
2024/02/28 06:03:47;;;;;;;;;;;;;;;17.55;43.52;100173.22;10199452;28;1901;-77
2024/02/28 06:08:43;;;;;;;;;;;;;;;17.54;43.26;100168.88;10198746;28;822;-77
2024/02/28 06:13:39;;;;;;;;;;;;;;;17.58;43.43;100174.88;10198705;28;914;-77
2024/02/28 06:18:35;;;;;;;;;;;;;;;17.56;43.46;100180.22;10198408;28;841;-77
2024/02/28 06:23:31;;;;;;;;;;;;;;;17.57;43.27;100200.38;10198351;28;1894;-77
2024/02/28 06:28:27;;;;;;;;;;;;;;;17.58;43.39;100204.75;10197987;28;1380;-77
2024/02/28 06:33:23;;;;;;;;;;;;;;;17.60;43.10;100212.59;10198950;28;881;-75
2024/02/28 06:38:18;;;;;;;;;;;;;;;17.60;43.19;100220.50;10198545;28;980;-76
2024/02/28 06:43:15;;;;;;;;;;;;;;;17.61;43.18;100214.34;10198374;28;1914;-73
2024/02/28 06:48:11;;;;;;;;;;;;;;;17.62;43.23;100205.50;10195600;28;1088;-71
2024/02/28 06:53:08;;;;;;;;;;;;;;;17.60;43.23;100215.22;10197265;28;783;-72
2024/02/28 06:58:04;;;;;;;;;;;;;;;17.61;43.10;100220.47;10197384;28;941;-72
2024/02/28 07:02:59;;;;;;;;;;;;;;;17.62;43.15;100216.91;10197059;28;1894;-72
2024/02/28 07:07:55;;;;;;;;;;;;;;;17.61;43.29;100217.81;10197872;28;932;-73
2024/02/28 07:12:51;;;;;;;;;;;;;;;17.59;43.16;100209.09;10196926;28;845;-72
2024/02/28 07:17:47;;;;;;;;;;;;;;;17.58;43.16;100210.03;10196936;28;1019;-71
2024/02/28 07:22:43;;;;;;;;;;;;;;;17.58;43.13;100201.25;10196863;28;795;-72
2024/02/28 07:27:39;;;;;;;;;;;;;;;17.53;43.52;100201.41;10199881;28;920;-71
2024/02/28 07:32:36;;;;;;;;;;;;;;;17.51;43.34;100198.81;10203869;28;1148;-72
2024/02/28 07:37:32;;;;;;;;;;;;;;;17.49;43.15;100200.66;10203027;28;878;-72
2024/02/28 07:42:28;;;;;;;;;;;;;;;17.49;43.15;100210.34;10202861;28;901;-72
2024/02/28 07:47:24;;;;;;;;;;;;;;;17.48;43.44;100212.13;10203251;28;1968;-71
2024/02/28 07:52:20;;;;;;;;;;;;;;;17.49;43.30;100215.59;10201899;28;847;-72
2024/02/28 07:57:16;;;;;;;;;;;;;;;17.50;43.44;100218.19;10203067;28;820;-70
2024/02/28 08:02:12;;;;;;;;;;;;;;;17.50;43.36;100212.94;10202205;28;923;-71
2024/02/28 08:07:08;;;;;;;;;;;;;;;17.52;43.44;100211.06;10202328;28;1890;-72
2024/02/28 08:12:04;;;;;;;;;;;;;;;17.53;43.49;100207.53;10202290;28;883;-71
2024/02/28 08:17:00;;;;;;;;;;;;;;;17.56;43.39;100206.59;10202808;28;798;-72
2024/02/28 08:21:56;;;;;;;;;;;;;;;17.59;43.45;100210.88;10202066;28;1097;-72
2024/02/28 08:26:52;;;;;;;;;;;;;;;17.59;43.54;100218.78;10201873;28;1894;-71
2024/02/28 08:31:48;;;;;;;;;;;;;;;17.59;43.38;100224.91;10202072;28;1694;-72
2024/02/28 08:36:44;;;;;;;;;;;;;;;17.60;43.32;100233.69;10200775;28;792;-71
2024/02/28 08:41:39;;;;;;;;;;;;;;;17.59;43.47;100245.16;10201400;28;806;-71
2024/02/28 08:46:35;;;;;;;;;;;;;;;17.60;43.26;100249.50;10200634;28;1970;-71
2024/02/28 08:51:31;;;;;;;;;;;;;;;17.60;43.04;100250.34;10201793;28;932;-71
2024/02/28 08:56:27;;;;;;;;;;;;;;;17.60;43.15;100239.81;10201638;28;854;-71
2024/02/28 09:01:23;;;;;;;;;;;;;;;17.62;43.25;100263.50;10201479;28;941;-71
2024/02/28 09:06:19;;;;;;;;;;;;;;;17.62;43.01;100269.63;10201274;28;1902;-71
2024/02/28 09:11:15;;;;;;;;;;;;;;;17.62;43.00;100264.34;10200573;28;810;-71
2024/02/28 09:16:10;;;;;;;;;;;;;;;17.63;43.24;100275.75;10201140;28;849;-71
2024/02/28 09:21:06;;;;;;;;;;;;;;;17.65;43.11;100282.69;10200201;28;976;-71
2024/02/28 09:26:02;;;;;;;;;;;;;;;17.64;43.04;100267.81;10200034;28;1902;-71
2024/02/28 09:30:58;;;;;;;;;;;;;;;17.66;43.08;100273.88;10200289;28;1141;-71
2024/02/28 09:35:54;;;;;;;;;;;;;;;17.66;43.19;100276.53;10199808;28;1642;-71
2024/02/28 09:40:50;;;;;;;;;;;;;;;17.66;43.06;100289.72;10200317;28;925;-71
2024/02/28 09:45:46;;;;;;;;;;;;;;;17.67;42.94;100286.16;10199410;28;1902;-71
2024/02/28 09:50:42;;;;;;;;;;;;;;;17.69;42.90;100286.09;10199233;28;802;-71
2024/02/28 09:55:37;;;;;;;;;;;;;;;17.69;42.93;100283.47;10199165;28;753;-71
2024/02/28 10:00:33;;;;;;;;;;;;;;;17.68;43.03;100290.53;10198805;28;870;-71
2024/02/28 10:05:29;;;;;;;;;;;;;;;17.68;42.93;100293.16;10198893;28;1961;-71
2024/02/28 10:10:27;;;;;;;;;;;;;;;17.70;42.97;100295.72;10199390;28;794;-71
2024/02/28 10:15:23;;;;;;;;;;;;;;;17.69;43.06;100291.38;10199174;28;778;-71
2024/02/28 10:20:19;;;;;;;;;;;;;;;17.71;42.95;100286.88;10199331;28;826;-71
2024/02/28 10:25:15;;;;;;;;;;;;;;;17.71;42.87;100285.13;10199059;28;1956;-71
2024/02/28 10:30:11;;;;;;;;;;;;;;;17.71;42.91;100285.13;10198850;28;1147;-73
2024/02/28 10:35:07;;;;;;;;;;;;;;;17.73;43.04;100285.91;10198052;28;833;-71
2024/02/28 10:40:03;;;;;;;;;;;;;;;17.74;43.08;100276.25;10197973;28;968;-71
2024/02/28 10:44:59;;;;;;;;;;;;;;;17.76;43.01;100287.59;10197468;28;1906;-75
2024/02/28 10:49:55;;;;;;;;;;;;;;;17.77;43.05;100283.22;10196851;28;1115;-71
2024/02/28 10:54:50;;;;;;;;;;;;;;;17.77;43.05;100284.06;10196361;28;849;-71
2024/02/28 10:59:46;;;;;;;;;;;;;;;17.79;42.86;100284.00;10198733;28;857;-71
2024/02/28 11:04:42;;;;;;;;;;;;;;;17.80;42.97;100283.13;10204512;28;1886;-75
2024/02/28 11:09:38;;;;;;;;;;;;;;;17.80;43.13;100283.13;10204681;28;834;-71
2024/02/28 11:14:34;;;;;;;;;;;;;;;17.81;43.18;100284.84;10203779;28;1693;-71
2024/02/28 11:19:33;;;;;;;;;;;;;;;17.84;43.11;100290.00;10203716;28;866;-71
2024/02/28 11:24:29;;;;;;;;;;;;;;;17.83;43.23;100268.06;10203473;28;1883;-76
2024/02/28 11:29:25;;;;;;;;;;;;;;;17.85;43.30;100263.59;10203053;28;1222;-71
2024/02/28 11:34:21;;;;;;;;;;;;;;;17.85;43.21;100268.00;10203129;28;1064;-71
2024/02/28 11:39:16;;;;;;;;;;;;;;;17.86;43.16;100261.81;10202706;28;889;-73
2024/02/28 11:44:14;;;;;;;;;;;;;;;17.89;43.12;100261.69;10202726;28;1910;-72
2024/02/28 11:49:10;;;;;;;;;;;;;;;17.89;43.25;100256.41;10203504;28;914;-73
2024/02/28 11:54:05;;;;;;;;;;;;;;;17.90;43.30;100255.53;10202421;28;876;-72
2024/02/28 11:59:03;;;;;;;;;;;;;;;17.91;43.15;100260.72;10202243;28;878;-73
2024/02/28 12:03:59;;;;;;;;;;;;;;;17.92;43.28;100251.03;10202033;28;1969;-71
2024/02/28 12:08:55;;;;;;;;;;;;;;;17.93;43.19;100248.34;10202395;28;802;-71
2024/02/28 12:13:51;;;;;;;;;;;;;;;17.94;43.34;100239.50;10201804;28;924;-71
2024/02/28 12:18:47;;;;;;;;;;;;;;;17.98;43.30;100227.09;10201984;28;981;-71
2024/02/28 12:23:43;;;;;;;;;;;;;;;17.99;43.12;100220.88;10201524;28;1898;-71
2024/02/28 12:28:39;;;;;;;;;;;;;;;18.01;43.49;100212.94;10201606;28;1141;-79
2024/02/28 12:33:35;;;;;;;;;;;;;;;18.02;43.41;100198.81;10201505;28;806;-71
2024/02/28 12:38:31;;;;;;;;;;;;;;;18.05;43.50;100202.22;10202215;28;920;-71
2024/02/28 12:43:27;;;;;;;;;;;;;;;18.07;43.39;100191.59;10201251;28;1967;-71
2024/02/28 12:48:23;;;;;;;;;;;;;;;18.09;43.34;100189.75;10201135;28;782;-71
2024/02/28 12:53:19;;;;;;;;;;;;;;;18.11;43.15;100183.50;10200723;28;1199;-74
2024/02/28 12:58:14;;;;;;;;;;;;;;;18.12;43.13;100181.72;10200863;28;924;-79
2024/02/28 13:03:10;;;;;;;;;;;;;;;18.16;43.35;100181.56;10200623;28;1961;-71
2024/02/28 13:08:06;;;;;;;;;;;;;;;18.18;43.03;100168.28;10200484;28;790;-71
2024/02/28 13:13:03;;;;;;;;;;;;;;;18.24;43.07;100162.81;10201084;28;855;-71
2024/02/28 13:17:59;;;;;;;;;;;;;;;18.28;43.19;100163.53;10200124;28;845;-71
2024/02/28 13:22:54;;;;;;;;;;;;;;;18.31;42.97;100158.13;10198879;28;955;-71
2024/02/28 13:27:50;;;;;;;;;;;;;;;18.34;43.10;100158.03;10199054;28;1886;-75
2024/02/28 13:32:47;;;;;;;;;;;;;;;18.35;43.03;100150.03;10200048;28;1147;-71
2024/02/28 13:37:43;;;;;;;;;;;;;;;18.38;42.98;100147.28;10199361;28;956;-71
2024/02/28 13:42:39;;;;;;;;;;;;;;;18.36;43.14;100140.34;10199528;28;836;-72
2024/02/28 13:47:35;;;;;;;;;;;;;;;18.33;43.18;100136.03;10199473;28;1915;-71
2024/02/28 13:52:30;;;;;;;;;;;;;;;18.32;43.26;100141.41;10199251;28;830;-71
2024/02/28 13:57:26;;;;;;;;;;;;;;;18.31;43.30;100142.28;10198189;28;948;-71
2024/02/28 14:02:25;;;;;;;;;;;;;;;18.31;43.09;100131.75;10198148;28;1051;-71
2024/02/28 14:07:21;;;;;;;;;;;;;;;18.33;42.94;100136.03;10199209;28;1895;-71
2024/02/28 14:12:17;;;;;;;;;;;;;;;18.36;43.17;100130.63;10198472;28;853;-71
2024/02/28 14:17:13;;;;;;;;;;;;;;;18.36;43.13;100125.34;10198331;28;810;-72
2024/02/28 14:22:09;;;;;;;;;;;;;;;18.34;43.10;100121.94;10198159;28;762;-71
2024/02/28 14:27:05;;;;;;;;;;;;;;;18.34;43.11;100126.38;10198658;28;1958;-71
2024/02/28 14:32:01;;;;;;;;;;;;;;;18.35;43.14;100128.06;10197304;28;1411;-71
2024/02/28 14:36:57;;;;;;;;;;;;;;;18.31;43.03;100124.72;10197341;28;719;-71
2024/02/28 14:41:53;;;;;;;;;;;;;;;18.30;43.02;100127.41;10198299;28;875;-72
2024/02/28 14:46:51;;;;;;;;;;;;;;;18.28;43.00;100127.44;10197529;28;1906;-71
2024/02/28 14:51:48;;;;;;;;;;;;;;;18.25;43.16;100129.34;10197476;28;882;-71
2024/02/28 14:56:44;;;;;;;;;;;;;;;18.24;43.22;100135.56;10197982;28;791;-71
2024/02/28 15:01:40;;;;;;;;;;;;;;;18.21;43.32;100139.19;10198430;28;925;-70
2024/02/28 15:06:36;;;;;;;;;;;;;;;18.20;43.26;100133.94;10197664;28;1882;-71
2024/02/28 15:11:31;;;;;;;;;;;;;;;18.17;43.32;100141.06;10196651;28;1011;-72
2024/02/28 15:16:27;;;;;;;;;;;;;;;18.16;43.14;100126.16;10196951;28;798;-72
2024/02/28 15:21:23;;;;;;;;;;;;;;;18.14;43.13;100129.78;10196793;28;848;-71
2024/02/28 15:26:19;;;;;;;;;;;;;;;18.13;43.47;100125.41;10197152;28;1890;-72
2024/02/28 15:31:15;;;;;;;;;;;;;;;18.12;43.45;100116.63;10196340;28;1232;-72
2024/02/28 15:36:11;;;;;;;;;;;;;;;18.12;43.32;100121.91;10196414;28;917;-72
2024/02/28 15:41:07;;;;;;;;;;;;;;;18.12;43.49;100119.25;10195766;28;764;-72
2024/02/28 15:46:03;;;;;;;;;;;;;;;18.11;43.46;100125.47;10197058;28;1883;-72
2024/02/28 15:50:59;;;;;;;;;;;;;;;18.10;43.53;100118.50;10202919;28;818;-73
2024/02/28 15:55:55;;;;;;;;;;;;;;;18.11;43.51;100108.78;10203323;28;825;-72
2024/02/28 16:00:52;;;;;;;;;;;;;;;18.10;43.46;100115.84;10203129;28;929;-72
2024/02/28 16:05:48;;;;;;;;;;;;;;;18.09;43.35;100116.75;10202282;28;1894;-72
2024/02/28 16:10:44;;;;;;;;;;;;;;;18.10;43.37;100107.94;10202225;28;961;-72
2024/02/28 16:15:40;;;;;;;;;;;;;;;18.09;43.45;100106.19;10202255;28;774;-72
2024/02/28 16:20:36;;;;;;;;;;;;;;;18.09;43.36;100103.56;10202680;28;889;-72
2024/02/28 16:25:32;;;;;;;;;;;;;;;18.09;43.62;100103.56;10202263;28;1891;-72
2024/02/28 16:30:27;;;;;;;;;;;;;;;18.08;43.43;100099.22;10201230;28;1294;-72
2024/02/28 16:35:23;;;;;;;;;;;;;;;18.10;43.50;100091.22;10201514;28;961;-72
2024/02/28 16:40:19;;;;;;;;;;;;;;;18.09;43.52;100100.94;10202063;28;801;-72
2024/02/28 16:45:15;;;;;;;;;;;;;;;18.09;43.35;100094.78;10201729;28;1914;-73
2024/02/28 16:50:11;;;;;;;;;;;;;;;18.10;43.33;100092.13;10201088;28;788;-72
2024/02/28 16:55:07;;;;;;;;;;;;;;;18.10;43.44;100085.94;10201086;28;753;-72
2024/02/28 17:00:08;;;;;;;;;;;;;;;18.10;43.44;100085.94;10201131;28;858;-72
2024/02/28 17:05:04;;;;;;;;;;;;;;;18.10;43.35;100085.94;10201127;28;1895;-72
2024/02/28 17:10:00;;;;;;;;;;;;;;;18.10;43.43;100089.47;10201056;28;995;-72
2024/02/28 17:14:56;;;;;;;;;;;;;;;18.11;43.29;100082.41;10199646;28;968;-72
2024/02/28 17:19:53;;;;;;;;;;;;;;;18.10;43.36;100078.03;10200119;28;894;-71
2024/02/28 17:24:49;;;;;;;;;;;;;;;18.10;43.54;100080.69;10200471;28;1973;-72
2024/02/28 17:29:46;;;;;;;;;;;;;;;18.11;43.37;100080.63;10199757;28;1088;-72
2024/02/28 17:34:49;;;;;;;;;;;;;;;18.11;43.54;100071.88;10200141;28;802;-72
2024/02/28 17:39:45;;;;;;;;;;;;;;;18.12;43.50;100084.13;10200166;28;822;-72
2024/02/28 17:44:41;;;;;;;;;;;;;;;18.12;43.40;100082.34;10200320;28;1911;-72
2024/02/28 17:49:37;;;;;;;;;;;;;;;18.12;43.49;100074.41;10199233;28;852;-72
2024/02/28 17:54:33;;;;;;;;;;;;;;;18.13;43.52;100078.78;10199086;28;856;-72
2024/02/28 17:59:29;;;;;;;;;;;;;;;18.13;43.45;100073.53;10199132;28;890;-72
2024/02/28 18:04:25;;;;;;;;;;;;;;;18.15;43.56;100068.16;10199140;28;1968;-72
2024/02/28 18:09:24;;;;;;;;;;;;;;;18.14;43.35;100064.66;10197891;28;836;-72
2024/02/28 18:14:20;;;;;;;;;;;;;;;18.15;43.47;100060.25;10198850;28;790;-72
2024/02/28 18:19:17;;;;;;;;;;;;;;;18.15;43.45;100055.81;10198315;28;965;-72
2024/02/28 18:24:13;;;;;;;;;;;;;;;18.16;43.55;100056.72;10198289;28;1902;-72
2024/02/28 18:29:09;;;;;;;;;;;;;;;18.17;43.42;100056.63;10197995;28;1261;-73
2024/02/28 18:34:05;;;;;;;;;;;;;;;18.17;43.49;100051.34;10198502;28;790;-72
2024/02/28 18:39:03;;;;;;;;;;;;;;;18.16;43.50;100047.00;10197810;28;877;-72
2024/02/28 18:43:59;;;;;;;;;;;;;;;18.18;43.33;100050.44;10197652;28;1918;-72
2024/02/28 18:48:54;;;;;;;;;;;;;;;18.18;43.40;100042.53;10198191;28;875;-72
2024/02/28 18:53:50;;;;;;;;;;;;;;;18.18;43.40;100042.53;10196849;28;906;-72
2024/02/28 18:58:46;;;;;;;;;;;;;;;18.20;43.44;100049.53;10198178;28;754;-72
2024/02/28 19:03:42;;;;;;;;;;;;;;;18.20;43.49;100033.69;10197685;28;1886;-72
2024/02/28 19:08:38;;;;;;;;;;;;;;;18.20;43.35;100029.25;10198218;28;981;-72
2024/02/28 19:13:34;;;;;;;;;;;;;;;18.21;43.36;100016.94;10197635;28;841;-72
2024/02/28 19:18:31;;;;;;;;;;;;;;;18.23;43.59;100020.38;10197560;28;769;-72
2024/02/28 19:23:27;;;;;;;;;;;;;;;18.22;43.51;100021.31;10201857;28;1940;-72
2024/02/28 19:28:23;;;;;;;;;;;;;;;18.23;43.37;100013.31;10203160;28;1005;-71
2024/02/28 19:33:19;;;;;;;;;;;;;;;18.25;43.34;100013.25;10203498;28;754;-72
2024/02/28 19:38:15;;;;;;;;;;;;;;;18.24;43.34;100004.50;10203914;28;857;-72
2024/02/28 19:43:11;;;;;;;;;;;;;;;18.25;43.46;100000.06;10203155;28;1914;-72
2024/02/28 19:48:07;;;;;;;;;;;;;;;18.26;43.46;100009.69;10203100;28;868;-72
2024/02/28 19:53:04;;;;;;;;;;;;;;;18.26;43.53;100014.97;10203994;28;907;-72
2024/02/28 19:57:59;;;;;;;;;;;;;;;18.27;43.32;100008.78;10202654;28;897;-72
2024/02/28 20:02:56;;;;;;;;;;;;;;;18.27;43.20;100003.50;10202565;28;791;-72
2024/02/28 20:07:52;;;;;;;;;;;;;;;18.27;43.37;100003.50;10202379;28;1890;-72
2024/02/28 20:12:47;;;;;;;;;;;;;;;18.29;43.36;100002.53;10203148;28;767;-72
2024/02/28 20:17:44;;;;;;;;;;;;;;;18.29;43.46;99999.03;10202671;28;863;-72
2024/02/28 20:22:40;;;;;;;;;;;;;;;18.29;43.25;99994.59;10202848;28;904;-72
2024/02/28 20:27:35;;;;;;;;;;;;;;;18.30;43.31;99993.66;10201972;28;1945;-72
2024/02/28 20:32:32;;;;;;;;;;;;;;;18.30;43.22;99983.13;10200927;28;1194;-72
2024/02/28 20:37:28;;;;;;;;;;;;;;;18.31;43.17;99981.31;10201496;28;805;-72
2024/02/28 20:42:24;;;;;;;;;;;;;;;18.30;43.29;99987.53;10201955;28;863;-72
2024/02/28 20:47:19;;;;;;;;;;;;;;;18.29;43.31;99980.56;10201764;28;1902;-72
2024/02/28 20:52:15;;;;;;;;;;;;;;;18.29;43.25;99972.63;10201254;28;853;-72
2024/02/28 20:57:11;;;;;;;;;;;;;;;18.27;43.42;99966.56;10201676;28;885;-72
2024/02/28 21:02:07;;;;;;;;;;;;;;;18.28;43.33;99963.00;10201421;28;866;-72
2024/02/28 21:07:04;;;;;;;;;;;;;;;18.25;43.37;99947.28;10201335;28;1898;-72
2024/02/28 21:12:00;;;;;;;;;;;;;;;18.26;43.20;99949.00;10201355;28;775;-72
2024/02/28 21:16:56;;;;;;;;;;;;;;;18.24;43.29;99945.59;10200545;28;968;-72
2024/02/28 21:21:52;;;;;;;;;;;;;;;18.24;43.43;99945.59;10201262;28;856;-72
2024/02/28 21:26:48;;;;;;;;;;;;;;;18.24;43.30;99953.50;10199499;28;1951;-72
2024/02/28 21:31:43;;;;;;;;;;;;;;;18.23;43.28;99957.91;10200926;28;1298;-72
2024/02/28 21:36:39;;;;;;;;;;;;;;;18.23;43.23;99959.69;10199826;28;962;-72
2024/02/28 21:41:35;;;;;;;;;;;;;;;18.22;43.21;99950.06;10200986;28;857;-72
2024/02/28 21:46:31;;;;;;;;;;;;;;;18.19;43.23;99937.84;10198656;28;1969;-72
2024/02/28 21:51:27;;;;;;;;;;;;;;;18.19;43.28;99940.50;10200274;28;849;-72
2024/02/28 21:56:23;;;;;;;;;;;;;;;18.16;43.14;99936.22;10199892;28;854;-72
2024/02/28 22:01:19;;;;;;;;;;;;;;;18.15;43.11;99931.84;10199278;28;956;-72
2024/02/28 22:06:15;;;;;;;;;;;;;;;18.13;43.41;99922.25;10199124;28;1898;-72
2024/02/28 22:11:10;;;;;;;;;;;;;;;18.11;43.09;99911.78;10198931;28;799;-72
2024/02/28 22:16:06;;;;;;;;;;;;;;;18.10;43.04;99910.09;10198868;28;781;-72
2024/02/28 22:21:02;;;;;;;;;;;;;;;18.09;43.27;99912.78;10198664;28;791;-72
2024/02/28 22:25:58;;;;;;;;;;;;;;;18.08;43.32;99908.44;10198378;28;1961;-72
2024/02/28 22:30:54;;;;;;;;;;;;;;;18.06;43.25;99899.72;10199689;28;1477;-72
2024/02/28 22:35:50;;;;;;;;;;;;;;;18.02;43.38;99896.34;10198001;28;959;-72
2024/02/28 22:40:46;;;;;;;;;;;;;;;18.01;43.04;99892.00;10198840;28;872;-72
2024/02/28 22:45:45;;;;;;;;;;;;;;;18.01;43.20;99893.78;10197980;28;1965;-72
2024/02/28 22:50:41;;;;;;;;;;;;;;;18.00;43.23;99889.41;10197860;28;759;-72
2024/02/28 22:55:37;;;;;;;;;;;;;;;17.98;43.22;99891.28;10198926;28;840;-72
2024/02/28 23:00:33;;;;;;;;;;;;;;;17.97;43.23;99879.84;10204883;28;806;-72
2024/02/28 23:05:29;;;;;;;;;;;;;;;17.94;43.12;99882.63;10204432;28;1953;-72
2024/02/28 23:10:25;;;;;;;;;;;;;;;17.93;43.23;99873.84;10204953;28;862;-72
2024/02/28 23:15:21;;;;;;;;;;;;;;;17.93;43.24;99873.00;10204979;28;865;-72
2024/02/28 23:20:16;;;;;;;;;;;;;;;17.91;43.28;99859.03;10204186;28;837;-72
2024/02/28 23:25:13;;;;;;;;;;;;;;;17.90;43.24;99857.31;10204350;28;1898;-72
2024/02/28 23:30:08;;;;;;;;;;;;;;;17.88;43.15;99856.50;10203647;28;1224;-72
2024/02/28 23:35:04;;;;;;;;;;;;;;;17.88;43.21;99851.25;10203621;28;785;-72
2024/02/28 23:40:00;;;;;;;;;;;;;;;17.87;43.13;99854.81;10203597;28;884;-72
2024/02/28 23:44:56;;;;;;;;;;;;;;;17.85;43.32;99840.81;10203313;28;1969;-72
2024/02/28 23:49:52;;;;;;;;;;;;;;;17.85;43.37;99846.94;10204024;28;809;-72
2024/02/28 23:54:48;;;;;;;;;;;;;;;17.85;43.14;99848.75;10203707;28;884;-72
2024/02/28 23:59:44;;;;;;;;;;;;;;;17.83;43.12;99840.03;10203386;28;1003;-72
